Time;durP1;ratioP1;P1;durP2;ratioP2;P2;SDS_P1;SDS_P2;PMS_P1;PMS_P2;Temp;Humidity;BMP_temperature;BMP_pressure;BME280_temperature;BME280_humidity;BME280_pressure;Samples;Min_cycle;Max_cycle;Signal;HPM_P1;HPM_P2
2021/08/30 00:02:05;;;;;;;;;;;;;;;26.51;41.02;100046.31;5097687;28;799;-34
2021/08/30 00:04:30;;;;;;;;;;;;;;;26.62;40.68;100054.91;5096735;28;1953;-32
2021/08/30 00:06:55;;;;;;;;;;;;;;;25.10;43.04;100046.50;5097249;28;736;-31
2021/08/30 00:09:21;;;;;;;;;;;;;;;23.49;44.88;100038.19;5097430;28;847;-30
2021/08/30 00:11:46;;;;;;;;;;;;;;;22.81;45.58;100022.50;5092608;28;970;-30
2021/08/30 00:14:11;;;;;;;;;;;;;;;22.53;45.46;100007.63;5076875;28;815;-30
2021/08/30 00:16:36;;;;;;;;;;;;;;;22.56;45.72;100007.28;5076882;28;800;-27
2021/08/30 00:19:02;;;;;;;;;;;;;;;22.44;45.95;100003.28;5076404;28;825;-29
2021/08/30 00:21:27;;;;;;;;;;;;;;;22.36;46.33;99999.59;5076376;28;886;-32
2021/08/30 00:23:52;;;;;;;;;;;;;;;21.99;47.15;99996.44;5076864;28;780;-30
2021/08/30 00:26:18;;;;;;;;;;;;;;;22.18;46.72;99997.09;5075919;28;1906;-30
2021/08/30 00:28:43;;;;;;;;;;;;;;;22.54;49.33;100006.59;5096830;28;960;-27
2021/08/30 00:31:08;;;;;;;;;;;;;;;24.60;43.30;100001.28;5096819;28;862;-30
2021/08/30 00:33:33;;;;;;;;;;;;;;;25.43;41.90;99997.59;5096599;28;815;-29
2021/08/30 00:35:59;;;;;;;;;;;;;;;25.87;40.70;100003.06;5096655;28;779;-30
2021/08/30 00:38:24;;;;;;;;;;;;;;;26.17;40.47;100005.56;5096913;28;831;-31
2021/08/30 00:40:50;;;;;;;;;;;;;;;26.21;42.39;100007.91;5096568;28;839;-33
2021/08/30 00:43:15;;;;;;;;;;;;;;;26.47;40.57;99995.69;5079367;28;938;-29
2021/08/30 00:45:40;;;;;;;;;;;;;;;26.44;41.05;99994.22;5076704;28;1957;-29
2021/08/30 00:48:06;;;;;;;;;;;;;;;23.86;44.56;99979.38;5075940;28;1096;-28
2021/08/30 00:50:31;;;;;;;;;;;;;;;22.77;45.50;99980.97;5076317;28;1460;-32
2021/08/30 00:52:56;;;;;;;;;;;;;;;22.47;45.19;99976.16;5075635;28;842;-33
2021/08/30 00:55:21;;;;;;;;;;;;;;;22.24;45.73;99976.81;5076003;28;751;-27
2021/08/30 00:57:47;;;;;;;;;;;;;;;22.13;45.93;99986.06;5088757;28;986;-29
2021/08/30 01:00:13;;;;;;;;;;;;;;;22.08;45.98;99988.41;5096299;28;804;-28
2021/08/30 01:02:38;;;;;;;;;;;;;;;22.02;46.07;99987.25;5096104;28;859;-30
2021/08/30 01:05:04;;;;;;;;;;;;;;;24.36;42.74;99992.44;5096292;28;1948;-30
2021/08/30 01:07:32;;;;;;;;;;;;;;;25.40;40.92;99986.38;5095222;28;787;-30
2021/08/30 01:10:24;;;;;;;;;;;;;;;25.83;39.67;99998.22;5094179;28;821;-31
2021/08/30 01:13:09;;;;;;;;;;;;;;;26.00;40.15;100002.34;5051720;28;1068;-31
2021/08/30 01:15:40;;;;;;;;;;;;;;;26.19;41.51;100016.19;5074568;28;1141;-30
2021/08/30 01:18:26;;;;;;;;;;;;;;;26.47;39.49;100019.94;5076065;28;779;-31
2021/08/30 01:21:09;;;;;;;;;;;;;;;26.70;39.90;100016.16;5075581;28;2020;-26
2021/08/30 01:23:36;;;;;;;;;;;;;;;26.71;40.32;100015.13;5075771;28;787;-32
2021/08/30 01:26:01;;;;;;;;;;;;;;;26.80;39.77;100010.41;5075647;28;1955;-29
2021/08/30 01:28:40;;;;;;;;;;;;;;;26.84;40.18;100015.19;5075170;28;987;-29
2021/08/30 01:31:18;;;;;;;;;;;;;;;27.05;40.06;100020.72;5075857;28;895;-31
2021/08/30 01:33:46;;;;;;;;;;;;;;;27.18;39.90;100028.03;5074709;28;807;-33
2021/08/30 01:36:11;;;;;;;;;;;;;;;27.18;40.25;100025.34;5074757;28;765;-30
2021/08/30 01:38:39;;;;;;;;;;;;;;;27.29;40.26;100008.59;5078551;28;821;-29
2021/08/30 01:41:04;;;;;;;;;;;;;;;27.37;40.45;100019.22;5079772;28;752;-32
2021/08/30 01:43:30;;;;;;;;;;;;;;;27.33;41.82;100017.94;5098758;28;1006;-31
2021/08/30 01:45:55;;;;;;;;;;;;;;;27.53;40.52;100011.75;5098531;28;1906;-28
2021/08/30 01:48:21;;;;;;;;;;;;;;;27.42;41.54;100020.47;5097951;28;1101;-30
2021/08/30 01:50:46;;;;;;;;;;;;;;;27.53;41.96;100030.66;5097916;28;856;-29
2021/08/30 01:53:11;;;;;;;;;;;;;;;27.47;41.02;100037.75;5098406;28;855;-30
2021/08/30 02:00:48;;;;;;;;;;;;;;;27.62;41.67;100047.53;5079074;28;618;-26
2021/08/30 02:03:14;;;;;;;;;;;;;;;27.62;42.44;100044.84;5078457;28;818;-32
2021/08/30 02:05:40;;;;;;;;;;;;;;;27.85;40.83;100047.22;5079203;28;1917;-26
2021/08/30 02:08:06;;;;;;;;;;;;;;;27.84;41.82;100040.13;5079151;28;799;-30
2021/08/30 02:10:31;;;;;;;;;;;;;;;27.91;41.64;100042.03;5079204;28;732;-31
2021/08/30 02:12:57;;;;;;;;;;;;;;;26.17;45.33;100037.94;5092715;28;939;-28
2021/08/30 02:15:22;;;;;;;;;;;;;;;25.15;46.56;100045.91;5098228;28;875;-29
2021/08/30 02:17:48;;;;;;;;;;;;;;;25.48;48.16;100044.66;5099370;28;756;-31
2021/08/30 02:20:16;;;;;;;;;;;;;;;26.93;43.27;100059.06;5099252;28;1125;-28
2021/08/30 02:22:45;;;;;;;;;;;;;;;27.32;42.49;100053.25;5098218;28;882;-27
2021/08/30 02:25:11;;;;;;;;;;;;;;;27.57;42.18;100060.81;5099010;28;1960;-29
2021/08/30 02:27:51;;;;;;;;;;;;;;;27.73;41.31;100046.13;5087616;28;926;-29
2021/08/30 02:30:20;;;;;;;;;;;;;;;27.93;40.79;100042.63;5079401;28;780;-27
2021/08/30 02:32:46;;;;;;;;;;;;;;;27.97;41.32;100054.72;5078605;28;783;-27
2021/08/30 02:35:13;;;;;;;;;;;;;;;27.95;41.21;100054.91;5077868;28;743;-29
2021/08/30 02:37:38;;;;;;;;;;;;;;;28.03;41.00;100061.19;5077887;28;834;-26
2021/08/30 02:40:04;;;;;;;;;;;;;;;28.08;41.00;100066.78;5077840;28;1408;-30
2021/08/30 02:42:30;;;;;;;;;;;;;;;28.06;40.91;100066.16;5089043;28;942;-26
2021/08/30 02:44:55;;;;;;;;;;;;;;;27.96;41.64;100061.97;5097555;28;1897;-32
2021/08/30 02:47:24;;;;;;;;;;;;;;;28.09;41.51;100066.56;5098409;28;735;-26
2021/08/30 02:49:49;;;;;;;;;;;;;;;28.15;41.36;100072.19;5097993;28;1428;-31
2021/08/30 02:52:15;;;;;;;;;;;;;;;28.31;40.86;100070.97;5096632;28;947;-27
2021/08/30 02:54:41;;;;;;;;;;;;;;;28.36;41.22;100061.19;5097282;28;763;-33
2021/08/30 02:57:06;;;;;;;;;;;;;;;28.29;41.30;100064.94;5089466;28;1143;-31
2021/08/30 02:59:35;;;;;;;;;;;;;;;28.38;41.35;100076.41;5078141;28;828;-30
2021/08/30 03:02:01;;;;;;;;;;;;;;;28.26;41.37;100081.56;5078194;28;851;-31
2021/08/30 03:04:26;;;;;;;;;;;;;;;28.31;41.83;100090.72;5093752;28;1980;-29
2021/08/30 03:06:52;;;;;;;;;;;;;;;28.43;40.89;100087.41;5076582;28;1119;-29
2021/08/30 03:09:17;;;;;;;;;;;;;;;28.41;41.31;100092.22;5076224;28;827;-27
2021/08/30 03:11:42;;;;;;;;;;;;;;;28.44;40.99;100098.06;5081820;28;951;-26
2021/08/30 03:14:08;;;;;;;;;;;;;;;28.47;41.35;100094.94;5097113;28;1431;-28
2021/08/30 03:16:33;;;;;;;;;;;;;;;28.42;41.59;100100.13;5098117;28;760;-31
2021/08/30 03:18:58;;;;;;;;;;;;;;;28.56;41.25;100094.72;5096616;28;855;-26
2021/08/30 03:21:30;;;;;;;;;;;;;;;28.52;41.16;100104.28;5098136;28;788;-30
2021/08/30 03:23:55;;;;;;;;;;;;;;;28.55;41.11;100099.28;5097912;28;714;-27
2021/08/30 03:26:21;;;;;;;;;;;;;;;28.49;41.57;100110.94;5097154;28;1901;-27
2021/08/30 03:28:49;;;;;;;;;;;;;;;28.50;41.79;100114.47;5076522;28;851;-30
2021/08/30 03:31:14;;;;;;;;;;;;;;;28.61;41.36;100124.69;5076031;28;736;-30
2021/08/30 03:33:39;;;;;;;;;;;;;;;28.63;41.41;100129.91;5076661;28;887;-27
2021/08/30 03:36:05;;;;;;;;;;;;;;;28.66;41.44;100121.34;5076213;28;791;-31
2021/08/30 03:38:30;;;;;;;;;;;;;;;28.68;41.67;100119.25;5076064;28;975;-29
2021/08/30 03:40:55;;;;;;;;;;;;;;;28.66;41.71;100122.16;5077706;28;779;-27
2021/08/30 03:43:21;;;;;;;;;;;;;;;28.65;41.76;100133.19;5093473;28;967;-29
2021/08/30 03:45:46;;;;;;;;;;;;;;;28.73;41.95;100144.66;5096306;28;1956;-25
2021/08/30 03:48:12;;;;;;;;;;;;;;;28.80;41.86;100152.78;5097675;28;1091;-31
2021/08/30 03:50:37;;;;;;;;;;;;;;;28.57;42.91;100148.63;5097047;28;1228;-28
2021/08/30 03:53:02;;;;;;;;;;;;;;;27.38;45.33;100147.81;5097755;28;886;-32
2021/08/30 03:55:28;;;;;;;;;;;;;;;26.93;47.40;100145.41;5088638;28;1437;-33
2021/08/30 03:57:56;;;;;;;;;;;;;;;26.53;49.10;100173.75;5089322;28;1435;-24
2021/08/30 04:00:22;;;;;;;;;;;;;;;27.67;47.13;100163.94;5090961;28;1399;-27
2021/08/30 04:02:47;;;;;;;;;;;;;;;28.13;44.96;100175.13;5085178;28;1412;-29
2021/08/30 04:05:13;;;;;;;;;;;;;;;28.34;44.55;100170.66;5081278;28;1906;-31
2021/08/30 04:07:38;;;;;;;;;;;;;;;28.66;43.49;100170.88;5086538;28;1319;-29
2021/08/30 04:10:04;;;;;;;;;;;;;;;28.73;43.25;100173.59;5091136;28;783;-29
2021/08/30 04:12:30;;;;;;;;;;;;;;;28.64;43.69;100175.69;5086446;28;1225;-31
2021/08/30 04:14:55;;;;;;;;;;;;;;;28.72;43.55;100171.94;5088560;28;1274;-30
2021/08/30 04:17:20;;;;;;;;;;;;;;;28.73;43.61;100170.88;5086764;28;1495;-29
2021/08/30 04:19:46;;;;;;;;;;;;;;;28.89;43.21;100174.22;5096855;28;752;-29
2021/08/30 04:22:11;;;;;;;;;;;;;;;28.90;43.05;100181.28;5080661;28;1537;-31
2021/08/30 04:24:36;;;;;;;;;;;;;;;28.83;43.21;100174.00;5080278;28;1901;-32
2021/08/30 04:27:02;;;;;;;;;;;;;;;28.70;42.23;100174.84;5095436;28;918;-28
2021/08/30 04:29:28;;;;;;;;;;;;;;;28.64;36.00;100174.84;5092547;28;766;-31
2021/08/30 04:31:54;;;;;;;;;;;;;;;28.64;38.00;100182.97;5075853;28;853;-30
2021/08/30 04:34:24;;;;;;;;;;;;;;;28.60;39.25;100196.06;5076701;28;804;-26
2021/08/30 04:36:52;;;;;;;;;;;;;;;28.58;39.82;100200.84;5079362;28;832;-31
2021/08/30 04:39:17;;;;;;;;;;;;;;;27.79;35.56;100193.97;5087425;28;1490;-31
2021/08/30 04:41:43;;;;;;;;;;;;;;;28.16;37.47;100196.38;5087785;28;1344;-29
2021/08/30 04:44:08;;;;;;;;;;;;;;;28.36;39.33;100207.28;5087682;28;1431;-32
2021/08/30 04:46:33;;;;;;;;;;;;;;;28.47;39.09;100208.56;5085612;28;1902;-27
2021/08/30 04:48:59;;;;;;;;;;;;;;;28.00;41.10;100213.78;5090280;28;1183;-28
2021/08/30 04:51:24;;;;;;;;;;;;;;;26.07;42.64;100209.94;5087239;28;1496;-25
2021/08/30 04:53:49;;;;;;;;;;;;;;;25.37;43.90;100215.59;5085766;28;1475;-32
2021/08/30 04:56:15;;;;;;;;;;;;;;;26.56;42.94;100209.44;5082017;28;1316;-27
2021/08/30 04:58:43;;;;;;;;;;;;;;;27.40;41.27;100215.13;5087406;28;1269;-30
2021/08/30 05:01:08;;;;;;;;;;;;;;;27.83;41.05;100213.28;5080239;28;807;-32
2021/08/30 05:03:33;;;;;;;;;;;;;;;27.96;41.56;100226.88;5081139;28;806;-28
2021/08/30 05:05:59;;;;;;;;;;;;;;;28.26;40.98;100223.00;5096390;28;1910;-33
2021/08/30 05:08:24;;;;;;;;;;;;;;;28.21;41.26;100222.81;5081741;28;791;-28
2021/08/30 05:10:49;;;;;;;;;;;;;;;28.32;41.51;100229.50;5076558;28;784;-25
2021/08/30 05:13:15;;;;;;;;;;;;;;;28.47;40.87;100232.06;5098248;28;943;-30
2021/08/30 05:15:40;;;;;;;;;;;;;;;28.51;41.19;100235.19;5102838;28;803;-29
2021/08/30 05:18:05;;;;;;;;;;;;;;;28.39;41.12;100233.09;5102931;28;865;-31
2021/08/30 05:20:30;;;;;;;;;;;;;;;28.45;41.22;100243.09;5102109;28;1466;-30
2021/08/30 05:22:56;;;;;;;;;;;;;;;28.13;42.23;100231.94;5102499;28;898;-29
2021/08/30 05:25:21;;;;;;;;;;;;;;;28.28;41.26;100226.34;5087808;28;1898;-28
2021/08/30 05:27:48;;;;;;;;;;;;;;;27.81;39.22;100231.59;5087692;28;1273;-26
2021/08/30 05:30:17;;;;;;;;;;;;;;;26.14;43.65;100236.97;5099053;28;830;-30
2021/08/30 05:32:42;;;;;;;;;;;;;;;26.14;46.31;100237.78;5096531;28;934;-29
2021/08/30 05:35:08;;;;;;;;;;;;;;;27.20;42.87;100237.44;5103269;28;744;-28
2021/08/30 05:37:33;;;;;;;;;;;;;;;27.85;41.57;100241.81;5103222;28;791;-30
2021/08/30 05:39:59;;;;;;;;;;;;;;;27.91;40.13;100242.84;5090220;28;913;-31
2021/08/30 05:42:24;;;;;;;;;;;;;;;28.20;40.99;100234.66;5091340;28;910;-32
2021/08/30 05:44:49;;;;;;;;;;;;;;;28.39;40.72;100246.63;5102637;28;1913;-31
2021/08/30 05:47:15;;;;;;;;;;;;;;;28.43;40.85;100233.50;5102694;28;795;-33
2021/08/30 05:49:40;;;;;;;;;;;;;;;28.34;41.05;100238.28;5103062;28;1126;-32
2021/08/30 05:52:05;;;;;;;;;;;;;;;28.38;41.35;100244.13;5101609;28;812;-33
2021/08/30 05:54:31;;;;;;;;;;;;;;;28.38;40.27;100242.22;5102029;28;867;-30
2021/08/30 05:56:56;;;;;;;;;;;;;;;28.54;39.02;100246.44;5096540;28;977;-27
2021/08/30 05:59:22;;;;;;;;;;;;;;;28.43;38.64;100245.16;5087028;28;1377;-31
2021/08/30 06:01:48;;;;;;;;;;;;;;;28.50;37.74;100253.28;5090701;28;1304;-28
2021/08/30 06:04:13;;;;;;;;;;;;;;;28.50;37.50;100247.88;5091232;28;1102;-29
2021/08/30 06:06:38;;;;;;;;;;;;;;;28.51;38.90;100259.53;5086636;28;1980;-27
2021/08/30 06:09:04;;;;;;;;;;;;;;;28.67;39.71;100261.03;5096278;28;1525;-27
2021/08/30 06:11:29;;;;;;;;;;;;;;;28.70;40.73;100264.16;5088906;28;876;-30
2021/08/30 06:13:54;;;;;;;;;;;;;;;28.73;40.61;100263.75;5085938;28;850;-30
2021/08/30 06:16:20;;;;;;;;;;;;;;;28.70;40.77;100266.88;5081850;28;839;-30
2021/08/30 06:18:45;;;;;;;;;;;;;;;28.76;40.73;100269.78;5082574;28;790;-29
2021/08/30 06:21:10;;;;;;;;;;;;;;;28.76;40.64;100273.31;5082204;28;826;-29
2021/08/30 06:23:35;;;;;;;;;;;;;;;28.67;40.49;100270.00;5082296;28;1499;-30
2021/08/30 06:26:01;;;;;;;;;;;;;;;28.75;40.69;100266.25;5091954;28;1914;-29
2021/08/30 06:28:26;;;;;;;;;;;;;;;28.81;40.59;100273.53;5081021;28;934;-33
2021/08/30 06:30:52;;;;;;;;;;;;;;;28.79;40.48;100274.78;5078251;28;801;-31
2021/08/30 06:33:17;;;;;;;;;;;;;;;28.79;40.77;100272.09;5086404;28;1412;-29
2021/08/30 06:35:43;;;;;;;;;;;;;;;28.80;40.48;100265.63;5088331;28;1384;-28
2021/08/30 06:38:09;;;;;;;;;;;;;;;28.77;40.49;100269.59;5098994;28;803;-28
2021/08/30 06:40:34;;;;;;;;;;;;;;;28.55;40.17;100275.16;5089246;28;1475;-30
2021/08/30 06:42:59;;;;;;;;;;;;;;;28.75;40.57;100271.66;5080006;28;1325;-31
2021/08/30 06:45:27;;;;;;;;;;;;;;;28.76;40.50;100267.91;5078553;28;1966;-26
2021/08/30 06:47:53;;;;;;;;;;;;;;;28.74;41.02;100272.72;5079058;28;807;-29
2021/08/30 06:50:18;;;;;;;;;;;;;;;28.87;40.67;100268.34;5079060;28;1321;-28
2021/08/30 06:52:43;;;;;;;;;;;;;;;28.93;41.14;100273.75;5093603;28;1368;-32
2021/08/30 06:55:09;;;;;;;;;;;;;;;28.76;41.05;100276.03;5083515;28;1253;-30
2021/08/30 06:57:35;;;;;;;;;;;;;;;29.00;40.71;100271.09;5089366;28;954;-27
2021/08/30 07:00:01;;;;;;;;;;;;;;;28.90;40.64;100267.91;5098248;28;837;-28
2021/08/30 07:02:26;;;;;;;;;;;;;;;28.94;40.61;100261.06;5097203;28;1448;-28
2021/08/30 07:04:51;;;;;;;;;;;;;;;28.84;41.11;100269.59;5098727;28;1902;-27
2021/08/30 07:07:17;;;;;;;;;;;;;;;28.90;41.16;100270.63;5097920;28;792;-32
2021/08/30 07:09:42;;;;;;;;;;;;;;;28.83;40.99;100270.63;5086122;28;1339;-30
2021/08/30 07:12:07;;;;;;;;;;;;;;;29.11;41.19;100272.34;5086878;28;1242;-30
2021/08/30 07:14:33;;;;;;;;;;;;;;;29.14;41.04;100276.50;5098005;28;796;-30
2021/08/30 07:16:58;;;;;;;;;;;;;;;29.10;41.64;100270.66;5098674;28;774;-30
2021/08/30 07:19:23;;;;;;;;;;;;;;;29.01;42.04;100270.03;5083943;28;780;-29
2021/08/30 07:21:49;;;;;;;;;;;;;;;28.99;42.06;100272.13;5077317;28;852;-26
2021/08/30 07:24:14;;;;;;;;;;;;;;;29.16;41.46;100271.72;5078354;28;806;-31
2021/08/30 07:26:39;;;;;;;;;;;;;;;29.31;41.17;100268.81;5080885;28;1999;-31
2021/08/30 07:29:05;;;;;;;;;;;;;;;29.27;41.05;100268.38;5098190;28;736;-25
2021/08/30 07:31:30;;;;;;;;;;;;;;;29.27;41.35;100273.81;5098519;28;786;-30
2021/08/30 07:33:55;;;;;;;;;;;;;;;29.33;41.29;100270.25;5088661;28;1379;-28
2021/08/30 07:36:21;;;;;;;;;;;;;;;29.28;41.47;100266.50;5077642;28;756;-31
2021/08/30 07:38:46;;;;;;;;;;;;;;;29.40;41.50;100269.41;5085792;28;1260;-27
2021/08/30 07:41:12;;;;;;;;;;;;;;;29.41;41.34;100276.50;5098267;28;811;-30
2021/08/30 07:43:37;;;;;;;;;;;;;;;29.37;41.48;100272.53;5077814;28;934;-31
2021/08/30 07:46:02;;;;;;;;;;;;;;;29.42;41.69;100272.75;5077310;28;1929;-33
2021/08/30 07:48:28;;;;;;;;;;;;;;;29.48;41.31;100269.19;5077790;28;1194;-30
2021/08/30 07:50:53;;;;;;;;;;;;;;;29.45;41.62;100262.31;5077558;28;831;-30
2021/08/30 07:53:18;;;;;;;;;;;;;;;29.48;41.72;100273.78;5077301;28;858;-29
2021/08/30 07:55:44;;;;;;;;;;;;;;;29.57;41.68;100261.66;5077489;28;737;-29
2021/08/30 07:58:09;;;;;;;;;;;;;;;29.51;41.48;100263.34;5092486;28;1017;-28
2021/08/30 08:00:34;;;;;;;;;;;;;;;29.52;41.70;100267.72;5092643;28;770;-31
2021/08/30 08:03:00;;;;;;;;;;;;;;;29.51;42.05;100271.47;5077346;28;776;-30
2021/08/30 08:05:25;;;;;;;;;;;;;;;29.53;41.97;100268.56;5077203;28;1971;-29
2021/08/30 08:07:50;;;;;;;;;;;;;;;29.48;42.37;100269.19;5077352;28;807;-30
2021/08/30 08:10:16;;;;;;;;;;;;;;;29.50;41.87;100274.38;5077760;28;826;-31
2021/08/30 08:12:41;;;;;;;;;;;;;;;29.61;41.70;100276.50;5087654;28;807;-29
2021/08/30 08:15:07;;;;;;;;;;;;;;;29.69;41.57;100280.84;5097082;28;885;-27
2021/08/30 08:17:34;;;;;;;;;;;;;;;29.73;41.83;100279.38;5097791;28;799;-29
2021/08/30 08:19:59;;;;;;;;;;;;;;;29.76;41.47;100272.72;5095984;28;839;-31
2021/08/30 08:22:25;;;;;;;;;;;;;;;29.76;41.42;100268.09;5097188;28;760;-30
2021/08/30 08:24:50;;;;;;;;;;;;;;;29.51;39.96;100270.66;5084086;28;1914;-32
2021/08/30 08:27:15;;;;;;;;;;;;;;;29.72;40.67;100272.28;5078935;28;870;-28
2021/08/30 08:29:41;;;;;;;;;;;;;;;29.73;41.06;100276.66;5081274;28;1375;-26
2021/08/30 08:32:06;;;;;;;;;;;;;;;29.81;40.94;100281.84;5090619;28;740;-29
2021/08/30 08:34:31;;;;;;;;;;;;;;;29.63;41.12;100271.69;5087320;28;803;-31
2021/08/30 08:37:06;;;;;;;;;;;;;;;29.67;41.09;100275.66;5075275;28;863;-32
2021/08/30 08:39:31;;;;;;;;;;;;;;;29.77;41.26;100275.22;5077451;28;821;-26
2021/08/30 08:41:57;;;;;;;;;;;;;;;29.68;41.35;100276.47;5075989;28;927;-30
2021/08/30 08:44:22;;;;;;;;;;;;;;;29.73;41.33;100279.38;5076521;28;1898;-32
2021/08/30 08:46:47;;;;;;;;;;;;;;;29.78;41.18;100267.91;5091093;28;1024;-32
2021/08/30 08:49:13;;;;;;;;;;;;;;;29.68;41.75;100274.59;5095764;28;1264;-29
2021/08/30 08:51:38;;;;;;;;;;;;;;;29.60;41.95;100274.81;5097063;28;795;-29
2021/08/30 08:54:06;;;;;;;;;;;;;;;29.60;42.23;100263.97;5097029;28;799;-30
2021/08/30 08:56:31;;;;;;;;;;;;;;;29.64;41.59;100265.25;5093995;28;1039;-30
2021/08/30 08:58:57;;;;;;;;;;;;;;;29.54;40.79;100271.06;5076591;28;799;-32
2021/08/30 09:01:23;;;;;;;;;;;;;;;29.73;41.54;100282.09;5076983;28;721;-31
2021/08/30 09:03:50;;;;;;;;;;;;;;;29.77;41.74;100280.63;5075611;28;856;-29
2021/08/30 09:06:25;;;;;;;;;;;;;;;29.69;42.22;100289.00;5076245;28;1973;-29
2021/08/30 09:08:52;;;;;;;;;;;;;;;29.65;42.09;100285.88;5076312;28;806;-32
2021/08/30 09:11:19;;;;;;;;;;;;;;;29.74;42.02;100291.91;5076304;28;907;-31
2021/08/30 09:13:52;;;;;;;;;;;;;;;29.75;41.99;100292.72;5096263;28;1584;-31
2021/08/30 09:16:21;;;;;;;;;;;;;;;29.77;41.87;100302.31;5096431;28;836;-29
2021/08/30 09:18:46;;;;;;;;;;;;;;;29.70;42.10;100296.06;5096432;28;816;-31
2021/08/30 09:21:12;;;;;;;;;;;;;;;29.77;41.98;100294.19;5096629;28;804;-28
2021/08/30 09:23:38;;;;;;;;;;;;;;;29.72;42.10;100290.44;5096606;28;1187;-27
2021/08/30 09:26:04;;;;;;;;;;;;;;;29.73;41.42;100284.78;5095687;28;1906;-28
2021/08/30 09:28:30;;;;;;;;;;;;;;;29.80;40.74;100299.19;5077300;28;946;-30
2021/08/30 09:30:57;;;;;;;;;;;;;;;29.72;41.18;100288.56;5076351;28;780;-32
2021/08/30 09:33:23;;;;;;;;;;;;;;;29.66;41.75;100301.06;5076183;28;833;-34
2021/08/30 09:36:00;;;;;;;;;;;;;;;29.75;43.38;100311.69;5076598;28;770;-33
2021/08/30 09:38:25;;;;;;;;;;;;;;;29.65;42.26;100296.72;5087352;28;1444;-32
2021/08/30 09:40:51;;;;;;;;;;;;;;;29.73;42.32;100292.94;5087538;28;837;-33
2021/08/30 09:43:19;;;;;;;;;;;;;;;29.64;43.56;100291.50;5086475;28;1230;-34
2021/08/30 09:45:45;;;;;;;;;;;;;;;29.87;43.72;100315.44;5077126;28;1921;-26
2021/08/30 09:48:13;;;;;;;;;;;;;;;29.73;44.17;100303.78;5080303;28;1557;-31
2021/08/30 09:50:41;;;;;;;;;;;;;;;29.54;45.55;100300.03;5081565;28;1476;-34
2021/08/30 09:53:06;;;;;;;;;;;;;;;29.43;46.51;100294.19;5086180;28;816;-33
2021/08/30 09:55:32;;;;;;;;;;;;;;;29.39;47.32;100297.53;5078340;28;1423;-32
2021/08/30 09:57:58;;;;;;;;;;;;;;;29.16;42.10;100298.81;5085383;28;1700;-31
2021/08/30 10:00:23;;;;;;;;;;;;;;;27.63;40.96;100295.91;5085710;28;1121;-32
2021/08/30 10:02:52;;;;;;;;;;;;;;;27.83;37.65;100305.19;5085515;28;1256;-26
2021/08/30 10:05:17;;;;;;;;;;;;;;;26.98;38.02;100299.50;5085600;28;1968;-31
2021/08/30 10:07:46;;;;;;;;;;;;;;;26.55;38.47;100315.66;5087372;28;1244;-32
2021/08/30 10:10:12;;;;;;;;;;;;;;;26.53;38.06;100311.31;5088711;28;1264;-31
2021/08/30 10:12:37;;;;;;;;;;;;;;;26.27;38.42;100309.94;5087250;28;1272;-28
2021/08/30 10:15:03;;;;;;;;;;;;;;;26.27;39.14;100306.41;5087275;28;1233;-33
2021/08/30 10:17:28;;;;;;;;;;;;;;;26.35;40.32;100316.25;5082517;28;1268;-34
2021/08/30 10:19:55;;;;;;;;;;;;;;;27.93;37.85;100311.06;5078875;28;1226;-33
2021/08/30 10:22:20;;;;;;;;;;;;;;;28.17;37.46;100317.03;5091141;28;1325;-34
2021/08/30 10:24:46;;;;;;;;;;;;;;;28.96;35.44;100318.56;5081471;28;1955;-31
2021/08/30 10:27:11;;;;;;;;;;;;;;;28.70;34.40;100309.31;5084327;28;1388;-33
2021/08/30 10:29:38;;;;;;;;;;;;;;;29.04;35.36;100315.69;5099824;28;743;-35
2021/08/30 10:32:04;;;;;;;;;;;;;;;29.13;35.60;100305.47;5099013;28;840;-34
2021/08/30 10:34:32;;;;;;;;;;;;;;;29.29;36.66;100308.81;5085519;28;1384;-32
2021/08/30 10:36:57;;;;;;;;;;;;;;;29.49;38.13;100310.66;5078921;28;1333;-35
2021/08/30 10:39:23;;;;;;;;;;;;;;;29.40;38.18;100304.63;5098550;28;831;-24
2021/08/30 10:41:50;;;;;;;;;;;;;;;29.45;39.48;100305.66;5094127;28;946;-34
2021/08/30 10:44:21;;;;;;;;;;;;;;;29.45;39.40;100311.09;5093314;28;792;-33
2021/08/30 10:46:51;;;;;;;;;;;;;;;29.40;39.71;100310.03;5091593;28;1968;-26
2021/08/30 10:49:20;;;;;;;;;;;;;;;29.61;39.52;100300.06;5085896;28;1613;-33
2021/08/30 10:51:45;;;;;;;;;;;;;;;29.64;40.25;100315.88;5088154;28;799;-32
2021/08/30 10:54:12;;;;;;;;;;;;;;;29.63;40.61;100312.34;5097486;28;763;-34
2021/08/30 10:56:38;;;;;;;;;;;;;;;29.69;40.41;100311.50;5092948;28;964;-34
2021/08/30 10:59:10;;;;;;;;;;;;;;;29.73;40.66;100301.06;5078693;28;817;-33
2021/08/30 11:01:36;;;;;;;;;;;;;;;29.74;41.08;100296.47;5078659;28;867;-29
2021/08/30 11:04:01;;;;;;;;;;;;;;;29.67;41.18;100310.88;5093887;28;1091;-32
2021/08/30 11:06:26;;;;;;;;;;;;;;;29.78;41.33;100311.28;5090490;28;1967;-33
2021/08/30 11:08:52;;;;;;;;;;;;;;;29.82;41.44;100315.22;5098210;28;824;-31
2021/08/30 11:11:22;;;;;;;;;;;;;;;29.89;41.25;100316.06;5082653;28;1542;-32
2021/08/30 11:13:59;;;;;;;;;;;;;;;29.74;41.68;100320.88;5078035;28;1084;-33
2021/08/30 11:16:25;;;;;;;;;;;;;;;29.84;41.27;100312.31;5079885;28;1557;-28
2021/08/30 11:18:51;;;;;;;;;;;;;;;29.67;40.56;100313.59;5083522;28;1357;-35
2021/08/30 11:21:16;;;;;;;;;;;;;;;29.94;39.78;100310.00;5088937;28;782;-33
2021/08/30 11:23:42;;;;;;;;;;;;;;;29.94;39.01;100299.16;5080600;28;1304;-32
2021/08/30 11:26:07;;;;;;;;;;;;;;;29.86;38.96;100302.09;5085997;28;1902;-30
2021/08/30 11:28:32;;;;;;;;;;;;;;;29.88;39.56;100302.72;5079226;28;958;-34
2021/08/30 11:30:58;;;;;;;;;;;;;;;29.85;39.50;100303.97;5083693;28;1332;-34
2021/08/30 11:33:23;;;;;;;;;;;;;;;29.60;39.73;100290.25;5082992;28;843;-35
2021/08/30 11:35:49;;;;;;;;;;;;;;;28.17;39.69;100291.84;5077616;28;828;-34
2021/08/30 11:38:14;;;;;;;;;;;;;;;27.53;38.16;100290.00;5084597;28;1495;-34
2021/08/30 11:40:39;;;;;;;;;;;;;;;26.85;37.93;100286.72;5089708;28;1257;-26
2021/08/30 11:43:11;;;;;;;;;;;;;;;26.34;40.28;100279.53;5082854;28;1013;-33
2021/08/30 11:45:36;;;;;;;;;;;;;;;25.88;42.30;100287.63;5077698;28;1976;-32
2021/08/30 11:48:02;;;;;;;;;;;;;;;25.83;42.39;100289.22;5076613;28;1237;-32
2021/08/30 11:50:30;;;;;;;;;;;;;;;25.78;43.34;100293.31;5077791;28;756;-32
2021/08/30 11:52:59;;;;;;;;;;;;;;;25.86;44.44;100286.16;5077498;28;792;-25
2021/08/30 11:55:30;;;;;;;;;;;;;;;27.89;40.58;100281.94;5077253;28;850;-34
2021/08/30 11:58:03;;;;;;;;;;;;;;;28.94;39.35;100290.84;5091228;28;966;-31
2021/08/30 12:00:28;;;;;;;;;;;;;;;29.33;38.95;100283.78;5096799;28;1407;-29
2021/08/30 12:02:57;;;;;;;;;;;;;;;28.96;39.34;100272.53;5097174;28;854;-24
2021/08/30 12:05:27;;;;;;;;;;;;;;;26.35;42.77;100267.72;5097264;28;1902;-32
2021/08/30 12:08:02;;;;;;;;;;;;;;;25.66;43.89;100271.38;5097197;28;815;-33
2021/08/30 12:10:28;;;;;;;;;;;;;;;25.65;44.08;100269.72;5097719;28;720;-31
2021/08/30 12:15:20;;;;;;;;;;;;;;;25.14;45.15;100275.72;5079508;28;1258;-33
2021/08/30 12:17:51;;;;;;;;;;;;;;;24.88;44.95;100272.34;5081664;28;778;-34
2021/08/30 12:20:48;;;;;;;;;;;;;;;24.93;44.11;100270.00;5076755;28;823;-27
2021/08/30 12:23:17;;;;;;;;;;;;;;;27.23;40.64;100274.84;5083179;28;1625;-31
2021/08/30 12:25:43;;;;;;;;;;;;;;;28.43;38.60;100274.06;5096301;28;1910;-34
2021/08/30 12:28:14;;;;;;;;;;;;;;;28.84;38.59;100280.44;5080856;28;970;-33
2021/08/30 12:30:46;;;;;;;;;;;;;;;29.14;38.67;100269.22;5079450;28;1527;-26
2021/08/30 12:33:16;;;;;;;;;;;;;;;29.32;38.87;100276.72;5088147;28;799;-34
2021/08/30 12:35:47;;;;;;;;;;;;;;;29.46;38.75;100276.72;5096822;28;890;-34
2021/08/30 12:38:19;;;;;;;;;;;;;;;29.52;39.23;100278.56;5091313;28;1340;-32
2021/08/30 12:40:46;;;;;;;;;;;;;;;29.60;39.57;100272.13;5077185;28;965;-26
2021/08/30 12:43:11;;;;;;;;;;;;;;;29.63;39.12;100274.41;5076361;28;919;-30
2021/08/30 12:45:37;;;;;;;;;;;;;;;29.62;39.61;100266.47;5076746;28;1967;-29
2021/08/30 12:48:03;;;;;;;;;;;;;;;29.75;39.90;100268.31;5075983;28;1018;-32
2021/08/30 12:50:28;;;;;;;;;;;;;;;29.79;39.82;100264.16;5076661;28;872;-35
2021/08/30 12:52:56;;;;;;;;;;;;;;;29.77;37.37;100263.53;5075685;28;839;-34
2021/08/30 12:55:22;;;;;;;;;;;;;;;29.72;37.25;100269.59;5076439;28;779;-34
2021/08/30 12:57:48;;;;;;;;;;;;;;;29.67;40.39;100277.53;5088647;28;939;-28